createdAt,value
2023-10-09T00:00:28.859Z,100433.94
2023-10-09T00:01:00.502Z,100438.28
2023-10-09T00:01:31.959Z,100435.56
2023-10-09T00:02:03.556Z,100431.75
2023-10-09T00:02:35.172Z,100433.38
2023-10-09T00:03:06.769Z,100433.38
2023-10-09T00:03:38.469Z,100426.28
2023-10-09T00:04:10.125Z,100435.28
2023-10-09T00:04:41.683Z,100438.00
2023-10-09T00:05:13.171Z,100438.81
2023-10-09T00:05:44.681Z,100445.38
2023-10-09T00:06:16.222Z,100441.00
2023-10-09T00:06:47.880Z,100445.66
2023-10-09T00:07:19.484Z,100443.47
2023-10-09T00:07:50.981Z,100441.56
2023-10-09T00:08:22.418Z,100435.28
2023-10-09T00:08:53.894Z,100435.56
2023-10-09T00:09:25.446Z,100432.84
2023-10-09T00:09:56.991Z,100433.66
2023-10-09T00:10:28.433Z,100435.84
2023-10-09T00:10:59.879Z,100437.47
2023-10-09T00:11:31.452Z,100426.84
2023-10-09T00:12:03.013Z,100433.94
2023-10-09T00:12:34.481Z,100437.47
2023-10-09T00:13:05.999Z,100434.47
2023-10-09T00:13:37.487Z,100442.94
2023-10-09T00:14:08.952Z,100438.28
2023-10-09T00:14:40.394Z,100439.91
2023-10-09T00:15:12.859Z,100433.66
2023-10-09T00:15:44.440Z,100437.19
2023-10-09T00:16:16.127Z,100439.91
2023-10-09T00:16:47.702Z,100434.75
2023-10-09T00:17:22.209Z,100436.38
2023-10-09T00:17:54.654Z,100431.75
2023-10-09T00:18:26.341Z,100435.28
2023-10-09T00:18:57.815Z,100433.38
2023-10-09T00:19:29.282Z,100431.75
2023-10-09T00:20:00.871Z,100427.09
2023-10-09T00:20:32.701Z,100426.00
2023-10-09T00:21:06.960Z,100417.00
2023-10-09T00:21:38.430Z,100417.81
2023-10-09T00:22:09.889Z,100419.72
2023-10-09T00:22:43.178Z,100422.75
2023-10-09T00:23:14.612Z,100417.28
2023-10-09T00:23:48.734Z,100420.84
2023-10-09T00:24:20.203Z,100421.66
2023-10-09T00:24:51.710Z,100420.00
2023-10-09T00:25:23.279Z,100420.84
2023-10-09T00:25:54.743Z,100419.47
2023-10-09T00:26:31.039Z,100419.47
2023-10-09T00:27:04.355Z,100418.91
2023-10-09T00:27:35.840Z,100420.84
2023-10-09T00:28:07.332Z,100423.03
2023-10-09T00:28:38.758Z,100423.84
2023-10-09T00:29:10.315Z,100421.09
2023-10-09T00:29:41.706Z,100427.38
2023-10-09T00:30:13.216Z,100428.47
2023-10-09T00:30:47.909Z,100421.09
2023-10-09T00:31:19.383Z,100420.00
2023-10-09T00:31:50.840Z,100421.94
2023-10-09T00:32:25.242Z,100418.38
2023-10-09T00:32:56.748Z,100424.66
2023-10-09T00:33:28.340Z,100418.91
2023-10-09T00:33:59.923Z,100424.66
2023-10-09T00:34:31.449Z,100416.47
2023-10-09T00:35:02.920Z,100424.66
2023-10-09T00:35:34.465Z,100412.13
2023-10-09T00:36:06.048Z,100412.94
2023-10-09T00:36:37.490Z,100417.28
2023-10-09T00:37:08.993Z,100415.13
2023-10-09T00:37:40.490Z,100420.28
2023-10-09T00:38:11.912Z,100416.47
2023-10-09T00:38:43.455Z,100421.09
2023-10-09T00:39:14.962Z,100417.28
2023-10-09T00:39:46.505Z,100410.75
2023-10-09T00:40:20.572Z,100414.84
2023-10-09T00:40:52.025Z,100409.66
2023-10-09T00:41:23.586Z,100412.94
2023-10-09T00:41:55.124Z,100413.19
2023-10-09T00:42:28.179Z,100412.13
2023-10-09T00:42:59.707Z,100418.38
2023-10-09T00:43:31.388Z,100405.56
2023-10-09T00:44:05.936Z,100396.56
2023-10-09T00:44:37.409Z,100409.09
2023-10-09T00:45:08.996Z,100396.56
2023-10-09T00:45:40.504Z,100398.47
2023-10-09T00:46:12.028Z,100404.47
2023-10-09T00:46:43.533Z,100399.28
2023-10-09T00:47:15.021Z,100404.75
2023-10-09T00:47:46.484Z,100399.56
2023-10-09T00:48:18.073Z,100404.22
2023-10-09T00:48:49.705Z,100397.94
2023-10-09T00:49:21.243Z,100399.84
2023-10-09T00:49:52.697Z,100405.31
2023-10-09T00:50:24.213Z,100395.50
2023-10-09T00:50:55.672Z,100394.66
2023-10-09T00:51:27.356Z,100388.13
2023-10-09T00:51:58.833Z,100395.50
2023-10-09T00:52:30.335Z,100390.84
2023-10-09T00:53:03.873Z,100392.75
2023-10-09T00:53:35.489Z,100387.31
2023-10-09T00:54:07.039Z,100387.31
2023-10-09T00:54:38.530Z,100391.94
2023-10-09T00:55:09.990Z,100390.03
2023-10-09T00:55:44.486Z,100384.84
2023-10-09T00:56:15.966Z,100392.22
2023-10-09T00:56:50.032Z,100388.41
2023-10-09T00:57:21.582Z,100393.84
2023-10-09T00:57:53.081Z,100384.03
2023-10-09T00:58:24.688Z,100387.88
2023-10-09T00:58:56.171Z,100387.88
2023-10-09T00:59:27.709Z,100382.41
2023-10-09T00:59:59.222Z,100380.50
2023-10-09T01:00:30.769Z,100384.03
2023-10-09T01:01:02.280Z,100385.97
2023-10-09T01:01:33.780Z,100383.22
2023-10-09T01:02:36.939Z,100385.13
2023-10-09T01:03:08.559Z,100388.69
2023-10-09T01:03:43.151Z,100385.97
2023-10-09T01:04:14.950Z,100388.41
2023-10-09T01:04:49.303Z,100390.31
2023-10-09T01:05:20.918Z,100389.78
2023-10-09T01:05:52.456Z,100386.78
2023-10-09T01:06:24.028Z,100381.31
2023-10-09T01:06:55.627Z,100379.69
2023-10-09T01:07:28.095Z,100385.13
2023-10-09T01:07:59.559Z,100379.69
2023-10-09T01:08:31.097Z,100383.22
2023-10-09T01:09:02.879Z,100377.78
2023-10-09T01:09:34.415Z,100367.69
2023-10-09T01:10:08.520Z,100378.59
2023-10-09T01:10:39.959Z,100370.41
2023-10-09T01:11:11.432Z,100375.03
2023-10-09T01:11:42.875Z,100363.31
2023-10-09T01:12:14.517Z,100363.31
2023-10-09T01:12:46.066Z,100372.03
2023-10-09T01:13:17.590Z,100372.03
2023-10-09T01:13:49.048Z,100363.84
2023-10-09T01:14:20.462Z,100364.69
2023-10-09T01:14:51.912Z,100370.13
2023-10-09T01:15:23.386Z,100360.31
2023-10-09T01:15:54.882Z,100364.97
2023-10-09T01:16:26.442Z,100360.59
2023-10-09T01:16:57.971Z,100359.50
2023-10-09T01:17:32.299Z,100364.97
2023-10-09T01:18:03.916Z,100360.59
2023-10-09T01:18:35.435Z,100360.59
2023-10-09T01:19:09.741Z,100363.03
2023-10-09T01:19:41.217Z,100361.41
2023-10-09T01:20:12.653Z,100356.78
2023-10-09T01:20:44.127Z,100355.13
2023-10-09T01:21:18.350Z,100359.50
2023-10-09T01:21:49.966Z,100357.88
2023-10-09T01:22:21.421Z,100354.03
2023-10-09T01:22:52.950Z,100352.41
2023-10-09T01:23:24.444Z,100361.41
2023-10-09T01:23:55.942Z,100361.41
2023-10-09T01:24:27.427Z,100362.22
2023-10-09T01:24:58.957Z,100362.22
2023-10-09T01:25:30.429Z,100357.06
2023-10-09T01:26:01.884Z,100357.06
2023-10-09T01:26:33.325Z,100357.88
2023-10-09T01:27:04.926Z,100356.25
2023-10-09T01:27:36.392Z,100350.78
2023-10-09T01:28:07.872Z,100353.50
2023-10-09T01:28:39.454Z,100348.88
2023-10-09T01:29:11.002Z,100349.69
2023-10-09T01:29:42.437Z,100344.22
2023-10-09T01:30:13.928Z,100349.69
2023-10-09T01:30:45.379Z,100343.13
2023-10-09T01:31:16.851Z,100347.78
2023-10-09T01:31:51.017Z,100352.41
2023-10-09T01:32:22.532Z,100353.22
2023-10-09T01:32:54.009Z,100355.13
2023-10-09T01:33:27.773Z,100350.78
2023-10-09T01:33:59.419Z,100352.69
2023-10-09T01:34:30.929Z,100358.16
2023-10-09T01:35:02.439Z,100349.97
2023-10-09T01:35:33.911Z,100358.16
2023-10-09T01:36:05.394Z,100362.50
2023-10-09T01:36:36.835Z,100358.97
2023-10-09T01:37:11.269Z,100352.69
2023-10-09T01:37:42.788Z,100353.50
2023-10-09T01:38:14.253Z,100351.59
2023-10-09T01:38:45.718Z,100353.50
2023-10-09T01:39:17.178Z,100361.69
2023-10-09T01:39:48.669Z,100359.78
2023-10-09T01:40:20.133Z,100366.06
2023-10-09T01:40:51.636Z,100369.88
2023-10-09T01:41:23.075Z,100371.78
2023-10-09T01:41:54.587Z,100371.78
2023-10-09T01:42:26.112Z,100378.06
2023-10-09T01:42:57.664Z,100370.69
2023-10-09T01:43:29.169Z,100377.22
2023-10-09T01:44:00.608Z,100370.69
2023-10-09T01:44:32.087Z,100373.69
2023-10-09T01:45:03.605Z,100373.41
2023-10-09T01:45:35.108Z,100378.06
2023-10-09T01:46:06.689Z,100376.16
2023-10-09T01:46:38.180Z,100381.59
2023-10-09T01:47:09.693Z,100369.88
2023-10-09T01:47:41.268Z,100372.59
2023-10-09T01:48:12.774Z,100380.78
2023-10-09T01:48:44.466Z,100376.97
2023-10-09T01:49:15.945Z,100375.31
2023-10-09T01:49:47.440Z,100378.06
2023-10-09T01:50:18.988Z,100374.22
2023-10-09T01:50:50.450Z,100378.06
2023-10-09T01:51:21.941Z,100375.03
2023-10-09T01:51:53.419Z,100376.97
2023-10-09T01:52:24.862Z,100369.88
2023-10-09T01:52:56.412Z,100360.88
2023-10-09T01:53:27.900Z,100361.69
2023-10-09T01:53:59.391Z,100361.69
2023-10-09T01:54:30.885Z,100357.06
2023-10-09T01:55:02.344Z,100362.50
2023-10-09T01:55:33.877Z,100364.41
2023-10-09T01:56:05.368Z,100367.16
2023-10-09T01:56:36.838Z,100370.69
2023-10-09T01:57:08.377Z,100367.16
2023-10-09T01:57:39.932Z,100370.69
2023-10-09T01:58:11.411Z,100367.16
2023-10-09T01:58:42.860Z,100377.78
2023-10-09T01:59:14.362Z,100381.59
2023-10-09T01:59:45.854Z,100375.03
2023-10-09T02:00:17.318Z,100375.31
2023-10-09T02:00:48.825Z,100372.59
2023-10-09T02:01:20.293Z,100376.16
2023-10-09T02:01:51.854Z,100376.16
2023-10-09T02:02:23.322Z,100384.31
2023-10-09T02:02:54.849Z,100380.78
2023-10-09T02:03:26.679Z,100384.31
2023-10-09T02:03:58.352Z,100378.06
2023-10-09T02:04:32.684Z,100378.88
2023-10-09T02:05:04.174Z,100380.78
2023-10-09T02:05:35.645Z,100371.78
2023-10-09T02:06:07.205Z,100372.59
2023-10-09T02:06:38.713Z,100370.97
2023-10-09T02:07:10.237Z,100365.50
2023-10-09T02:07:41.780Z,100374.50
2023-10-09T02:08:13.533Z,100373.41
2023-10-09T02:08:45.070Z,100375.31
2023-10-09T02:09:19.374Z,100369.06
2023-10-09T02:09:50.870Z,100375.31
2023-10-09T02:10:22.400Z,100369.06
2023-10-09T02:10:53.828Z,100366.31
2023-10-09T02:11:25.420Z,100366.06
2023-10-09T02:11:57.013Z,100372.59
2023-10-09T02:12:28.565Z,100370.97
2023-10-09T02:13:00.068Z,100367.97
2023-10-09T02:13:31.677Z,100380.50
2023-10-09T02:14:05.441Z,100379.69
2023-10-09T02:14:36.938Z,100382.41
2023-10-09T02:15:08.451Z,100377.22
2023-10-09T02:15:43.110Z,100369.88
2023-10-09T02:16:14.687Z,100369.06
2023-10-09T02:16:46.252Z,100370.69
2023-10-09T02:17:17.701Z,100365.22
2023-10-09T02:17:51.924Z,100369.88
2023-10-09T02:18:23.648Z,100367.16
2023-10-09T02:18:55.309Z,100364.41
2023-10-09T02:19:26.939Z,100367.16
2023-10-09T02:19:58.436Z,100363.59
2023-10-09T02:20:29.932Z,100367.16
2023-10-09T02:21:01.508Z,100367.16
2023-10-09T02:21:32.979Z,100371.78
2023-10-09T02:22:04.427Z,100367.16
2023-10-09T02:22:35.862Z,100366.88
2023-10-09T02:23:07.396Z,100364.41
2023-10-09T02:23:38.857Z,100357.88
2023-10-09T02:24:10.407Z,100362.50
2023-10-09T02:24:44.306Z,100358.97
2023-10-09T02:25:15.737Z,100366.06
2023-10-09T02:25:47.218Z,100364.97
2023-10-09T02:26:18.705Z,100368.78
2023-10-09T02:26:50.194Z,100363.31
2023-10-09T02:27:21.731Z,100363.31
2023-10-09T02:27:53.227Z,100360.31
2023-10-09T02:28:24.656Z,100361.41
2023-10-09T02:28:56.049Z,100361.13
2023-10-09T02:29:27.552Z,100363.84
2023-10-09T02:30:01.608Z,100356.50
2023-10-09T02:30:33.192Z,100363.59
2023-10-09T02:31:04.683Z,100361.13
2023-10-09T02:31:36.185Z,100360.31
2023-10-09T02:32:10.529Z,100358.69
2023-10-09T02:32:42.029Z,100359.50
2023-10-09T02:33:13.531Z,100357.88
2023-10-09T02:33:47.867Z,100357.59
2023-10-09T02:34:19.392Z,100357.59
2023-10-09T02:34:50.837Z,100354.03
2023-10-09T02:35:22.296Z,100355.69
2023-10-09T02:35:53.783Z,100356.50
2023-10-09T02:36:25.436Z,100363.84
2023-10-09T02:36:57.025Z,100356.78
2023-10-09T02:37:28.570Z,100358.41
2023-10-09T02:38:00.045Z,100359.50
2023-10-09T02:38:31.498Z,100353.78
2023-10-09T02:39:02.991Z,100351.84
2023-10-09T02:39:34.527Z,100360.31
2023-10-09T02:40:06.029Z,100355.69
2023-10-09T02:40:37.479Z,100361.94
2023-10-09T02:41:10.223Z,100355.69
2023-10-09T02:41:41.723Z,100350.22
2023-10-09T02:42:13.273Z,100355.69
2023-10-09T02:42:45.050Z,100357.06
2023-10-09T02:43:16.493Z,100357.88
2023-10-09T02:43:47.953Z,100355.13
2023-10-09T02:44:19.369Z,100354.03
2023-10-09T02:44:51.019Z,100350.50
2023-10-09T02:45:22.739Z,100345.88
2023-10-09T02:45:54.296Z,100348.59
2023-10-09T02:46:25.816Z,100343.13
2023-10-09T02:46:57.379Z,100341.50
2023-10-09T02:47:28.900Z,100345.06
2023-10-09T02:48:00.499Z,100340.41
2023-10-09T02:48:32.049Z,100340.94
2023-10-09T02:49:03.494Z,100343.94
2023-10-09T02:49:34.968Z,100343.13
2023-10-09T02:50:08.567Z,100336.06
2023-10-09T02:50:40.159Z,100340.69
2023-10-09T02:51:11.659Z,100348.06
2023-10-09T02:51:43.211Z,100336.06
2023-10-09T02:52:14.725Z,100348.06
2023-10-09T02:52:46.151Z,100345.31
2023-10-09T02:53:17.569Z,100348.06
2023-10-09T02:53:49.004Z,100348.06
2023-10-09T02:54:20.656Z,100348.88
2023-10-09T02:54:52.191Z,100348.34
2023-10-09T02:55:23.728Z,100349.97
2023-10-09T02:55:55.208Z,100355.41
2023-10-09T02:56:29.260Z,100344.50
2023-10-09T02:57:00.867Z,100352.69
2023-10-09T02:57:32.488Z,100344.50
2023-10-09T02:58:04.090Z,100342.59
2023-10-09T02:58:35.565Z,100345.31
2023-10-09T02:59:07.062Z,100349.97
2023-10-09T02:59:38.622Z,100345.31
2023-10-09T03:00:10.209Z,100339.88
2023-10-09T03:00:41.828Z,100340.97
2023-10-09T03:01:13.357Z,100348.06
2023-10-09T03:01:44.836Z,100351.88
2023-10-09T03:02:18.916Z,100347.25
2023-10-09T03:02:50.369Z,100354.59
2023-10-09T03:03:22.013Z,100351.06
2023-10-09T03:03:53.645Z,100344.50
2023-10-09T03:04:25.808Z,100343.69
2023-10-09T03:04:57.393Z,100352.97
2023-10-09T03:05:28.870Z,100346.44
2023-10-09T03:06:00.426Z,100351.88
2023-10-09T03:06:31.951Z,100342.59
2023-10-09T03:07:03.513Z,100345.31
2023-10-09T03:07:34.954Z,100345.31
2023-10-09T03:08:09.426Z,100345.31
2023-10-09T03:08:40.875Z,100341.78
2023-10-09T03:09:12.397Z,100339.88
2023-10-09T03:09:43.884Z,100337.97
2023-10-09T03:10:15.434Z,100338.78
2023-10-09T03:10:47.060Z,100334.44
2023-10-09T03:11:18.563Z,100340.69
2023-10-09T03:11:49.984Z,100333.31
2023-10-09T03:12:21.493Z,100336.06
2023-10-09T03:12:52.932Z,100333.59
2023-10-09T03:13:24.442Z,100338.25
2023-10-09T03:13:55.914Z,100339.88
2023-10-09T03:14:27.460Z,100337.16
2023-10-09T03:14:59.093Z,100344.50
2023-10-09T03:15:30.636Z,100345.31
2023-10-09T03:16:02.070Z,100348.06
2023-10-09T03:16:33.525Z,100340.97
2023-10-09T03:17:05.280Z,100346.44
2023-10-09T03:17:36.991Z,100342.59
2023-10-09T03:18:08.541Z,100340.69
2023-10-09T03:18:40.103Z,100343.41
2023-10-09T03:19:14.443Z,100337.16
2023-10-09T03:19:45.917Z,100330.88
2023-10-09T03:20:17.445Z,100334.44
2023-10-09T03:20:48.971Z,100332.50
2023-10-09T03:21:20.438Z,100327.06
2023-10-09T03:21:51.945Z,100333.31
2023-10-09T03:22:26.406Z,100328.69
2023-10-09T03:22:59.683Z,100321.59
2023-10-09T03:23:31.304Z,100321.88
2023-10-09T03:24:02.835Z,100328.16
2023-10-09T03:24:34.341Z,100324.63
2023-10-09T03:25:05.762Z,100317.53
2023-10-09T03:25:37.232Z,100330.06
2023-10-09T03:26:21.041Z,100321.06
2023-10-09T03:26:53.108Z,100318.06
2023-10-09T03:27:24.652Z,100315.63
2023-10-09T03:27:56.192Z,100317.25
2023-10-09T03:28:27.922Z,100325.44
2023-10-09T03:28:59.417Z,100323.50
2023-10-09T03:29:32.428Z,100330.88
2023-10-09T03:30:03.886Z,100335.50
2023-10-09T03:30:35.374Z,100333.59
2023-10-09T03:31:09.883Z,100321.06
2023-10-09T03:31:41.369Z,100331.97
2023-10-09T03:32:12.824Z,100322.97
2023-10-09T03:32:44.359Z,100327.34
2023-10-09T03:33:15.997Z,100321.88
2023-10-09T03:33:47.555Z,100319.16
2023-10-09T03:34:19.015Z,100319.97
2023-10-09T03:34:50.518Z,100319.97
2023-10-09T03:35:21.977Z,100324.63
2023-10-09T03:35:56.375Z,100322.69
2023-10-09T03:36:28.025Z,100323.50
2023-10-09T03:36:59.528Z,100325.16
2023-10-09T03:37:31.026Z,100318.06
2023-10-09T03:38:02.624Z,100318.06
2023-10-09T03:38:36.791Z,100318.88
2023-10-09T03:39:08.256Z,100318.06
2023-10-09T03:39:40.022Z,100311.78
2023-10-09T03:40:11.688Z,100325.16
2023-10-09T03:40:43.141Z,100315.34
2023-10-09T03:41:17.102Z,100319.69
2023-10-09T03:41:52.014Z,100323.25
2023-10-09T03:42:23.931Z,100321.59
2023-10-09T03:42:58.551Z,100322.69
2023-10-09T03:43:31.652Z,100310.97
2023-10-09T03:44:03.092Z,100315.63
2023-10-09T03:44:34.570Z,100310.97
2023-10-09T03:45:06.054Z,100315.34
2023-10-09T03:45:37.508Z,100310.97
2023-10-09T03:46:09.052Z,100318.06
2023-10-09T03:46:40.611Z,100315.34
2023-10-09T03:47:14.536Z,100307.16
2023-10-09T03:47:45.975Z,100307.16
2023-10-09T03:48:20.319Z,100307.16
2023-10-09T03:48:51.863Z,100302.78
2023-10-09T03:49:23.389Z,100307.44
2023-10-09T03:49:55.521Z,100308.25
2023-10-09T03:50:27.242Z,100309.06
2023-10-09T03:51:01.834Z,100306.34
2023-10-09T03:51:33.419Z,100310.97
2023-10-09T03:52:04.994Z,100312.59
2023-10-09T03:52:36.454Z,100309.06
2023-10-09T03:53:07.973Z,100301.97
2023-10-09T03:53:39.530Z,100296.81
2023-10-09T03:54:11.201Z,100301.97
2023-10-09T03:54:42.784Z,100306.34
2023-10-09T03:55:14.345Z,100303.63
2023-10-09T03:55:45.799Z,100300.06
2023-10-09T03:56:17.285Z,100300.06
2023-10-09T03:56:48.751Z,100305.53
2023-10-09T03:57:22.071Z,100300.06
2023-10-09T03:57:53.558Z,100294.63
2023-10-09T03:58:25.039Z,100298.44
2023-10-09T03:58:56.446Z,100291.88
2023-10-09T03:59:27.863Z,100289.97
2023-10-09T03:59:59.528Z,100287.25
2023-10-09T04:00:31.243Z,100284.53
2023-10-09T04:01:02.845Z,100288.88
2023-10-09T04:01:34.400Z,100282.63
2023-10-09T04:02:06.088Z,100281.53
2023-10-09T04:02:37.655Z,100281.53
2023-10-09T04:03:09.324Z,100280.69
2023-10-09T04:03:41.017Z,100286.97
2023-10-09T04:04:12.646Z,100280.69
2023-10-09T04:04:44.260Z,100283.44
2023-10-09T04:05:15.758Z,100287.78
2023-10-09T04:05:47.287Z,100286.97
2023-10-09T04:06:18.899Z,100291.59
2023-10-09T04:06:50.346Z,100295.44
2023-10-09T04:07:21.982Z,100289.97
2023-10-09T04:07:53.386Z,100288.88
2023-10-09T04:08:27.811Z,100288.88
2023-10-09T04:08:59.313Z,100296.25
2023-10-09T04:09:30.857Z,100295.44
2023-10-09T04:10:02.454Z,100289.97
2023-10-09T04:10:34.012Z,100291.88
2023-10-09T04:11:05.644Z,100285.63
2023-10-09T04:11:37.200Z,100292.44
2023-10-09T04:12:08.651Z,100284.53
2023-10-09T04:12:42.694Z,100282.63
2023-10-09T04:13:14.197Z,100276.34
2023-10-09T04:13:45.647Z,100285.34
2023-10-09T04:14:17.130Z,100277.44
2023-10-09T04:14:48.642Z,100279.88
2023-10-09T04:15:20.138Z,100279.88
2023-10-09T04:15:51.652Z,100280.69
2023-10-09T04:16:25.597Z,100279.88
2023-10-09T04:16:57.204Z,100291.59
2023-10-09T04:17:28.697Z,100288.06
2023-10-09T04:18:00.307Z,100284.53
2023-10-09T04:18:31.866Z,100280.97
2023-10-09T04:19:03.452Z,100275.53
2023-10-09T04:19:35.011Z,100288.06
2023-10-09T04:20:06.541Z,100284.25
2023-10-09T04:20:38.067Z,100284.25
2023-10-09T04:21:12.265Z,100280.69
2023-10-09T04:21:43.746Z,100277.97
2023-10-09T04:22:15.258Z,100282.63
2023-10-09T04:22:46.737Z,100283.72
2023-10-09T04:23:18.211Z,100285.63
2023-10-09T04:23:49.629Z,100280.16
2023-10-09T04:24:21.080Z,100282.06
2023-10-09T04:24:52.580Z,100283.72
2023-10-09T04:25:24.166Z,100285.34
2023-10-09T04:25:55.649Z,100278.25
2023-10-09T04:26:30.349Z,100274.72
2023-10-09T04:27:02.056Z,100279.88
2023-10-09T04:27:33.556Z,100278.78
2023-10-09T04:28:05.025Z,100277.69
2023-10-09T04:28:36.492Z,100279.59
2023-10-09T04:29:07.986Z,100276.88
2023-10-09T04:29:39.443Z,100281.22
2023-10-09T04:30:10.947Z,100271.44
2023-10-09T04:30:42.549Z,100275.25
2023-10-09T04:31:14.073Z,100278.78
2023-10-09T04:31:45.653Z,100272.53
2023-10-09T04:32:19.107Z,100268.97
2023-10-09T04:32:51.127Z,100274.44
2023-10-09T04:33:24.993Z,100261.09
2023-10-09T04:33:56.484Z,100261.91
2023-10-09T04:34:27.991Z,100262.72
2023-10-09T04:34:59.447Z,100262.72
2023-10-09T04:35:30.884Z,100266.25
2023-10-09T04:36:02.638Z,100264.34
2023-10-09T04:36:34.188Z,100249.91
2023-10-09T04:37:05.696Z,100254.25
2023-10-09T04:37:37.192Z,100249.06
2023-10-09T04:38:08.633Z,100258.88
2023-10-09T04:38:40.109Z,100255.06
2023-10-09T04:39:11.644Z,100264.06
2023-10-09T04:39:43.155Z,100265.97
2023-10-09T04:40:14.638Z,100257.50
2023-10-09T04:40:46.089Z,100274.16
2023-10-09T04:41:17.667Z,100272.25
2023-10-09T04:41:49.135Z,100276.06
2023-10-09T04:42:20.657Z,100276.88
2023-10-09T04:42:52.220Z,100282.34
2023-10-09T04:43:23.768Z,100282.34
2023-10-09T04:43:58.131Z,100277.97
2023-10-09T04:44:29.571Z,100281.53
2023-10-09T04:45:04.058Z,100279.88
2023-10-09T04:45:35.661Z,100269.78
2023-10-09T04:46:07.204Z,100270.88
2023-10-09T04:46:38.817Z,100277.16
2023-10-09T04:47:14.956Z,100273.63
2023-10-09T04:47:46.895Z,100272.81
2023-10-09T04:48:19.989Z,100272.81
2023-10-09T04:48:51.480Z,100273.63
2023-10-09T04:49:23.038Z,100272.81
2023-10-09T04:49:54.519Z,100270.06
2023-10-09T04:50:25.956Z,100270.88
2023-10-09T04:50:57.448Z,100268.16
2023-10-09T04:51:31.524Z,100266.25
2023-10-09T04:52:02.981Z,100260.81
2023-10-09T04:52:35.125Z,100265.44
2023-10-09T04:53:07.408Z,100263.53
2023-10-09T04:53:38.929Z,100266.25
2023-10-09T04:54:10.404Z,100265.72
2023-10-09T04:54:41.926Z,100271.72
2023-10-09T04:55:13.487Z,100268.97
2023-10-09T04:55:45.016Z,100268.97
2023-10-09T04:56:18.270Z,100267.34
2023-10-09T04:56:49.752Z,100270.88
2023-10-09T04:57:21.277Z,100267.34
2023-10-09T04:57:52.690Z,100266.25
2023-10-09T04:58:24.247Z,100271.72
2023-10-09T04:58:55.703Z,100265.16
2023-10-09T04:59:27.247Z,100265.44
2023-10-09T04:59:58.769Z,100267.34
2023-10-09T05:00:30.312Z,100274.44
2023-10-09T05:01:01.851Z,100267.34
2023-10-09T05:01:35.247Z,100269.78
2023-10-09T05:02:06.712Z,100268.16
2023-10-09T05:02:38.303Z,100268.16
2023-10-09T05:03:09.853Z,100263.53
2023-10-09T05:03:41.375Z,100271.72
2023-10-09T05:04:13.086Z,100268.16
2023-10-09T05:04:44.691Z,100271.72
2023-10-09T05:05:16.128Z,100263.53
2023-10-09T05:05:47.613Z,100255.34
2023-10-09T05:06:19.098Z,100263.53
2023-10-09T05:06:50.594Z,100262.72
2023-10-09T05:07:22.102Z,100260.81
2023-10-09T05:07:53.607Z,100262.72
2023-10-09T05:08:27.621Z,100261.91
2023-10-09T05:08:59.168Z,100263.53
2023-10-09T05:09:30.662Z,100267.06
2023-10-09T05:10:02.227Z,100266.25
2023-10-09T05:10:33.656Z,100266.25
2023-10-09T05:11:05.171Z,100269.78
2023-10-09T05:11:36.674Z,100266.25
2023-10-09T05:12:08.243Z,100273.34
2023-10-09T05:12:39.745Z,100272.53
2023-10-09T05:13:11.316Z,100262.44
2023-10-09T05:13:43.575Z,100263.53
2023-10-09T05:14:15.260Z,100265.16
2023-10-09T05:14:46.726Z,100267.06
2023-10-09T05:15:18.197Z,100259.97
2023-10-09T05:15:49.731Z,100267.06
2023-10-09T05:16:21.328Z,100260.53
2023-10-09T05:16:52.839Z,100260.81
2023-10-09T05:17:24.261Z,100256.97
2023-10-09T05:17:55.873Z,100268.97
2023-10-09T05:18:27.424Z,100262.44
2023-10-09T05:18:59.380Z,100259.97
2023-10-09T05:19:30.844Z,100262.72
2023-10-09T05:20:02.299Z,100255.34
2023-10-09T05:20:33.819Z,100260.81
2023-10-09T05:21:06.201Z,100261.91
2023-10-09T05:21:40.415Z,100259.16
2023-10-09T05:22:11.929Z,100263.53
2023-10-09T05:22:43.415Z,100261.09
2023-10-09T05:23:14.918Z,100259.16
2023-10-09T05:23:52.036Z,100262.72
2023-10-09T05:24:23.493Z,100261.09
2023-10-09T05:24:54.991Z,100263.81
2023-10-09T05:25:29.502Z,100270.06
2023-10-09T05:26:03.882Z,100254.53
2023-10-09T05:26:35.372Z,100257.53
2023-10-09T05:27:06.843Z,100247.44
2023-10-09T05:27:38.350Z,100258.34
2023-10-09T05:28:09.827Z,100248.25
2023-10-09T05:28:41.349Z,100243.63
2023-10-09T05:29:13.103Z,100242.81
2023-10-09T05:29:44.712Z,100247.16
2023-10-09T05:30:16.324Z,100247.16
2023-10-09T05:30:47.842Z,100247.16
2023-10-09T05:31:19.389Z,100253.44
2023-10-09T05:31:50.921Z,100251.53
2023-10-09T05:32:22.448Z,100265.69
2023-10-09T05:32:53.928Z,100255.06
2023-10-09T05:33:25.467Z,100258.59
2023-10-09T05:33:57.239Z,100256.97
2023-10-09T05:34:28.758Z,100267.06
2023-10-09T05:35:00.433Z,100261.91
2023-10-09T05:35:32.017Z,100268.16
2023-10-09T05:36:03.528Z,100261.91
2023-10-09T05:36:35.124Z,100268.97
2023-10-09T05:37:06.654Z,100265.44
2023-10-09T05:37:38.157Z,100265.44
2023-10-09T05:38:12.509Z,100264.63
2023-10-09T05:38:43.974Z,100268.97
2023-10-09T05:39:16.272Z,100267.06
2023-10-09T05:39:48.092Z,100263.53
2023-10-09T05:40:19.689Z,100266.25
2023-10-09T05:40:51.225Z,100274.44
2023-10-09T05:41:22.681Z,100279.88
2023-10-09T05:41:54.123Z,100282.63
2023-10-09T05:42:25.634Z,100287.25
2023-10-09T05:42:57.107Z,100286.44
2023-10-09T05:43:28.608Z,100292.72
2023-10-09T05:44:00.124Z,100291.88
2023-10-09T05:44:31.613Z,100300.88
2023-10-09T05:45:03.282Z,100291.88
2023-10-09T05:45:34.806Z,100293.81
2023-10-09T05:46:06.346Z,100294.63
2023-10-09T05:46:37.917Z,100305.53
2023-10-09T05:47:09.441Z,100295.44
2023-10-09T05:47:40.882Z,100301.69
2023-10-09T05:48:12.383Z,100310.97
2023-10-09T05:48:44.041Z,100309.34
2023-10-09T05:49:15.758Z,100311.78
2023-10-09T05:49:47.457Z,100312.88
2023-10-09T05:50:19.062Z,100321.88
2023-10-09T05:50:50.538Z,100321.88
2023-10-09T05:51:21.985Z,100321.88
2023-10-09T05:51:53.467Z,100329.25
2023-10-09T05:52:25.018Z,100325.44
2023-10-09T05:52:56.466Z,100328.16
2023-10-09T05:53:27.922Z,100327.34
2023-10-09T05:53:59.406Z,100325.72
2023-10-09T05:54:30.852Z,100325.72
2023-10-09T05:55:02.522Z,100327.34
2023-10-09T05:55:33.967Z,100326.53
2023-10-09T05:56:05.456Z,100321.06
2023-10-09T05:56:36.851Z,100320.25
2023-10-09T05:57:08.287Z,100322.97
2023-10-09T05:57:39.820Z,100320.25
2023-10-09T05:58:11.391Z,100312.06
2023-10-09T05:58:42.867Z,100317.25
2023-10-09T05:59:14.478Z,100320.25
2023-10-09T05:59:46.086Z,100328.44
2023-10-09T06:00:23.252Z,100329.25
2023-10-09T06:00:54.694Z,100325.72
2023-10-09T06:01:26.145Z,100329.25
2023-10-09T06:01:57.683Z,100336.63
2023-10-09T06:02:29.239Z,100328.44
2023-10-09T06:03:02.658Z,100329.25
2023-10-09T06:03:34.468Z,100333.88
2023-10-09T06:04:06.191Z,100331.16